sensor_id;sensor_type;location;lat;lon;timestamp;P1;durP1;ratioP1;P2;durP2;ratioP2
31990;SDS011;18508;49.386;8.370;2023-02-03T00:02:12;7.32;;;4.32;;
31990;SDS011;18508;49.386;8.370;2023-02-03T00:04:40;10.55;;;5.32;;
31990;SDS011;18508;49.386;8.370;2023-02-03T00:07:08;9.05;;;4.57;;
31990;SDS011;18508;49.386;8.370;2023-02-03T00:09:38;8.45;;;4.20;;
31990;SDS011;18508;49.386;8.370;2023-02-03T00:12:06;9.75;;;4.60;;
31990;SDS011;18508;49.386;8.370;2023-02-03T00:14:35;9.90;;;4.72;;
31990;SDS011;18508;49.386;8.370;2023-02-03T00:17:04;7.28;;;4.18;;
31990;SDS011;18508;49.386;8.370;2023-02-03T00:19:33;9.77;;;4.45;;
31990;SDS011;18508;49.386;8.370;2023-02-03T00:22:01;8.40;;;3.70;;
31990;SDS011;18508;49.386;8.370;2023-02-03T00:24:30;10.18;;;3.70;;
31990;SDS011;18508;49.386;8.370;2023-02-03T00:26:58;6.35;;;3.13;;
31990;SDS011;18508;49.386;8.370;2023-02-03T00:29:26;6.47;;;3.03;;
31990;SDS011;18508;49.386;8.370;2023-02-03T00:31:54;6.75;;;3.25;;
31990;SDS011;18508;49.386;8.370;2023-02-03T00:34:26;6.25;;;3.40;;
31990;SDS011;18508;49.386;8.370;2023-02-03T00:36:56;6.88;;;3.30;;
31990;SDS011;18508;49.386;8.370;2023-02-03T00:39:24;7.07;;;3.00;;
31990;SDS011;18508;49.386;8.370;2023-02-03T00:41:52;10.35;;;4.45;;
31990;SDS011;18508;49.386;8.370;2023-02-03T00:44:20;9.35;;;3.03;;
31990;SDS011;18508;49.386;8.370;2023-02-03T00:46:48;9.75;;;3.05;;
31990;SDS011;18508;49.386;8.370;2023-02-03T00:49:16;6.47;;;2.40;;
31990;SDS011;18508;49.386;8.370;2023-02-03T00:51:44;6.53;;;2.65;;
31990;SDS011;18508;49.386;8.370;2023-02-03T00:54:14;5.78;;;3.03;;
31990;SDS011;18508;49.386;8.370;2023-02-03T00:56:42;6.38;;;2.80;;
31990;SDS011;18508;49.386;8.370;2023-02-03T00:59:10;6.60;;;2.92;;
31990;SDS011;18508;49.386;8.370;2023-02-03T01:01:38;6.88;;;3.28;;
31990;SDS011;18508;49.386;8.370;2023-02-03T01:04:06;6.63;;;2.75;;
31990;SDS011;18508;49.386;8.370;2023-02-03T01:06:34;8.15;;;3.17;;
31990;SDS011;18508;49.386;8.370;2023-02-03T01:09:02;7.20;;;2.50;;
31990;SDS011;18508;49.386;8.370;2023-02-03T01:11:32;8.02;;;2.70;;
31990;SDS011;18508;49.386;8.370;2023-02-03T01:14:00;7.88;;;2.47;;
31990;SDS011;18508;49.386;8.370;2023-02-03T01:16:29;3.72;;;2.45;;
31990;SDS011;18508;49.386;8.370;2023-02-03T01:19:01;6.20;;;2.50;;
31990;SDS011;18508;49.386;8.370;2023-02-03T01:21:30;5.43;;;2.20;;
31990;SDS011;18508;49.386;8.370;2023-02-03T01:23:58;6.15;;;2.60;;
31990;SDS011;18508;49.386;8.370;2023-02-03T01:26:26;5.82;;;2.30;;
31990;SDS011;18508;49.386;8.370;2023-02-03T01:28:57;4.68;;;2.20;;
31990;SDS011;18508;49.386;8.370;2023-02-03T01:31:27;4.05;;;2.20;;
31990;SDS011;18508;49.386;8.370;2023-02-03T01:33:56;4.45;;;2.33;;
31990;SDS011;18508;49.386;8.370;2023-02-03T01:36:25;4.57;;;2.53;;
31990;SDS011;18508;49.386;8.370;2023-02-03T01:38:55;6.15;;;2.97;;
31990;SDS011;18508;49.386;8.370;2023-02-03T01:41:24;5.82;;;2.50;;
31990;SDS011;18508;49.386;8.370;2023-02-03T01:43:54;4.07;;;2.00;;
31990;SDS011;18508;49.386;8.370;2023-02-03T01:46:27;8.13;;;2.60;;
31990;SDS011;18508;49.386;8.370;2023-02-03T01:49:00;7.33;;;2.40;;
31990;SDS011;18508;49.386;8.370;2023-02-03T01:51:33;5.45;;;2.40;;
31990;SDS011;18508;49.386;8.370;2023-02-03T01:54:04;4.85;;;2.20;;
31990;SDS011;18508;49.386;8.370;2023-02-03T01:56:34;4.22;;;2.38;;
31990;SDS011;18508;49.386;8.370;2023-02-03T01:59:06;4.97;;;1.92;;
31990;SDS011;18508;49.386;8.370;2023-02-03T02:01:34;3.70;;;2.22;;
31990;SDS011;18508;49.386;8.370;2023-02-03T02:04:03;5.30;;;2.33;;
31990;SDS011;18508;49.386;8.370;2023-02-03T02:06:32;6.03;;;2.03;;
31990;SDS011;18508;49.386;8.370;2023-02-03T02:09:01;6.13;;;2.20;;
31990;SDS011;18508;49.386;8.370;2023-02-03T02:11:29;4.78;;;1.75;;
31990;SDS011;18508;49.386;8.370;2023-02-03T02:13:58;4.72;;;1.80;;
31990;SDS011;18508;49.386;8.370;2023-02-03T02:16:33;4.88;;;1.80;;
31990;SDS011;18508;49.386;8.370;2023-02-03T02:19:15;6.03;;;2.08;;
31990;SDS011;18508;49.386;8.370;2023-02-03T02:22:09;4.30;;;1.88;;
31990;SDS011;18508;49.386;8.370;2023-02-03T02:24:58;3.70;;;1.67;;
31990;SDS011;18508;49.386;8.370;2023-02-03T02:27:57;4.60;;;1.80;;
31990;SDS011;18508;49.386;8.370;2023-02-03T02:30:49;3.92;;;1.92;;
31990;SDS011;18508;49.386;8.370;2023-02-03T02:33:37;3.30;;;1.27;;
31990;SDS011;18508;49.386;8.370;2023-02-03T02:36:12;4.28;;;1.63;;
31990;SDS011;18508;49.386;8.370;2023-02-03T02:38:48;3.00;;;1.33;;
31990;SDS011;18508;49.386;8.370;2023-02-03T02:41:23;2.58;;;1.10;;
31990;SDS011;18508;49.386;8.370;2023-02-03T02:43:56;4.18;;;1.70;;
31990;SDS011;18508;49.386;8.370;2023-02-03T02:46:29;2.03;;;1.13;;
31990;SDS011;18508;49.386;8.370;2023-02-03T02:49:02;3.70;;;1.83;;
31990;SDS011;18508;49.386;8.370;2023-02-03T02:51:36;2.70;;;1.60;;
31990;SDS011;18508;49.386;8.370;2023-02-03T02:54:06;4.13;;;1.30;;
31990;SDS011;18508;49.386;8.370;2023-02-03T02:56:38;2.75;;;1.20;;
31990;SDS011;18508;49.386;8.370;2023-02-03T02:59:07;2.42;;;1.40;;
31990;SDS011;18508;49.386;8.370;2023-02-03T03:01:36;2.05;;;1.10;;
31990;SDS011;18508;49.386;8.370;2023-02-03T03:04:07;4.10;;;1.60;;
31990;SDS011;18508;49.386;8.370;2023-02-03T03:06:38;3.55;;;1.90;;
31990;SDS011;18508;49.386;8.370;2023-02-03T03:11:42;2.60;;;1.40;;
31990;SDS011;18508;49.386;8.370;2023-02-03T03:14:15;3.25;;;1.42;;
31990;SDS011;18508;49.386;8.370;2023-02-03T03:16:46;4.30;;;1.70;;
31990;SDS011;18508;49.386;8.370;2023-02-03T03:19:21;3.55;;;1.60;;
31990;SDS011;18508;49.386;8.370;2023-02-03T03:21:53;4.85;;;1.65;;
31990;SDS011;18508;49.386;8.370;2023-02-03T03:24:26;2.33;;;1.10;;
31990;SDS011;18508;49.386;8.370;2023-02-03T03:26:58;3.65;;;1.35;;
31990;SDS011;18508;49.386;8.370;2023-02-03T03:29:33;3.33;;;1.35;;
31990;SDS011;18508;49.386;8.370;2023-02-03T03:32:05;3.30;;;1.52;;
31990;SDS011;18508;49.386;8.370;2023-02-03T03:34:35;3.38;;;1.55;;
31990;SDS011;18508;49.386;8.370;2023-02-03T03:37:05;3.22;;;1.10;;
31990;SDS011;18508;49.386;8.370;2023-02-03T03:39:41;4.40;;;1.85;;
31990;SDS011;18508;49.386;8.370;2023-02-03T03:42:16;5.78;;;2.35;;
31990;SDS011;18508;49.386;8.370;2023-02-03T03:44:51;5.35;;;2.30;;
31990;SDS011;18508;49.386;8.370;2023-02-03T03:47:25;4.38;;;2.22;;
31990;SDS011;18508;49.386;8.370;2023-02-03T03:50:00;5.07;;;2.30;;
31990;SDS011;18508;49.386;8.370;2023-02-03T03:52:30;3.40;;;2.10;;
31990;SDS011;18508;49.386;8.370;2023-02-03T03:55:01;4.63;;;2.20;;
31990;SDS011;18508;49.386;8.370;2023-02-03T03:57:33;3.85;;;2.10;;
31990;SDS011;18508;49.386;8.370;2023-02-03T04:00:04;5.07;;;2.05;;
31990;SDS011;18508;49.386;8.370;2023-02-03T04:02:35;5.20;;;2.42;;
31990;SDS011;18508;49.386;8.370;2023-02-03T04:05:08;4.72;;;2.13;;
31990;SDS011;18508;49.386;8.370;2023-02-03T04:07:38;4.13;;;2.17;;
31990;SDS011;18508;49.386;8.370;2023-02-03T04:10:11;4.72;;;2.15;;
31990;SDS011;18508;49.386;8.370;2023-02-03T04:12:47;4.03;;;2.45;;
31990;SDS011;18508;49.386;8.370;2023-02-03T04:15:15;4.40;;;2.33;;
31990;SDS011;18508;49.386;8.370;2023-02-03T04:17:43;4.65;;;2.63;;
31990;SDS011;18508;49.386;8.370;2023-02-03T04:20:13;7.45;;;2.35;;
31990;SDS011;18508;49.386;8.370;2023-02-03T04:22:41;5.78;;;2.72;;
31990;SDS011;18508;49.386;8.370;2023-02-03T04:25:09;4.85;;;2.15;;
31990;SDS011;18508;49.386;8.370;2023-02-03T04:27:37;5.47;;;2.60;;
31990;SDS011;18508;49.386;8.370;2023-02-03T04:30:06;4.28;;;2.30;;
31990;SDS011;18508;49.386;8.370;2023-02-03T04:32:35;4.18;;;2.50;;
31990;SDS011;18508;49.386;8.370;2023-02-03T04:35:03;3.90;;;2.22;;
31990;SDS011;18508;49.386;8.370;2023-02-03T04:37:34;5.30;;;2.28;;
31990;SDS011;18508;49.386;8.370;2023-02-03T04:40:02;5.28;;;2.33;;
31990;SDS011;18508;49.386;8.370;2023-02-03T04:42:31;4.65;;;2.40;;
31990;SDS011;18508;49.386;8.370;2023-02-03T04:44:59;7.68;;;2.50;;
31990;SDS011;18508;49.386;8.370;2023-02-03T04:47:27;4.53;;;2.53;;
31990;SDS011;18508;49.386;8.370;2023-02-03T04:49:55;5.85;;;2.67;;
31990;SDS011;18508;49.386;8.370;2023-02-03T04:52:23;4.32;;;2.22;;
31990;SDS011;18508;49.386;8.370;2023-02-03T04:54:53;4.35;;;2.05;;
31990;SDS011;18508;49.386;8.370;2023-02-03T04:57:21;4.20;;;2.25;;
31990;SDS011;18508;49.386;8.370;2023-02-03T04:59:49;5.80;;;2.50;;
31990;SDS011;18508;49.386;8.370;2023-02-03T05:02:17;6.47;;;2.85;;
31990;SDS011;18508;49.386;8.370;2023-02-03T05:04:46;6.88;;;2.60;;
31990;SDS011;18508;49.386;8.370;2023-02-03T05:07:14;6.05;;;2.25;;
31990;SDS011;18508;49.386;8.370;2023-02-03T05:09:42;5.95;;;2.30;;
31990;SDS011;18508;49.386;8.370;2023-02-03T05:12:11;6.72;;;2.85;;
31990;SDS011;18508;49.386;8.370;2023-02-03T05:14:39;5.45;;;2.67;;
31990;SDS011;18508;49.386;8.370;2023-02-03T05:17:08;4.18;;;2.10;;
31990;SDS011;18508;49.386;8.370;2023-02-03T05:19:36;3.95;;;2.42;;
31990;SDS011;18508;49.386;8.370;2023-02-03T05:22:04;7.28;;;2.53;;
31990;SDS011;18508;49.386;8.370;2023-02-03T05:24:32;8.45;;;3.38;;
31990;SDS011;18508;49.386;8.370;2023-02-03T05:27:00;5.85;;;2.70;;
31990;SDS011;18508;49.386;8.370;2023-02-03T05:29:29;4.90;;;2.30;;
31990;SDS011;18508;49.386;8.370;2023-02-03T05:31:57;5.07;;;2.38;;
31990;SDS011;18508;49.386;8.370;2023-02-03T05:34:26;4.75;;;2.20;;
31990;SDS011;18508;49.386;8.370;2023-02-03T05:36:55;3.95;;;1.90;;
31990;SDS011;18508;49.386;8.370;2023-02-03T05:39:27;4.82;;;2.00;;
31990;SDS011;18508;49.386;8.370;2023-02-03T05:42:00;2.65;;;1.90;;
31990;SDS011;18508;49.386;8.370;2023-02-03T05:44:30;4.47;;;2.17;;
31990;SDS011;18508;49.386;8.370;2023-02-03T05:46:59;4.55;;;2.53;;
31990;SDS011;18508;49.386;8.370;2023-02-03T05:49:28;4.18;;;2.17;;
31990;SDS011;18508;49.386;8.370;2023-02-03T05:51:58;3.65;;;2.03;;
31990;SDS011;18508;49.386;8.370;2023-02-03T05:54:27;5.03;;;2.63;;
31990;SDS011;18508;49.386;8.370;2023-02-03T05:56:57;12.02;;;5.25;;
31990;SDS011;18508;49.386;8.370;2023-02-03T05:59:27;14.18;;;8.82;;
31990;SDS011;18508;49.386;8.370;2023-02-03T06:01:58;6.78;;;3.00;;
31990;SDS011;18508;49.386;8.370;2023-02-03T06:04:29;6.40;;;3.60;;
31990;SDS011;18508;49.386;8.370;2023-02-03T06:06:58;4.95;;;2.47;;
31990;SDS011;18508;49.386;8.370;2023-02-03T06:09:26;7.35;;;2.53;;
31990;SDS011;18508;49.386;8.370;2023-02-03T06:11:54;3.95;;;1.92;;
31990;SDS011;18508;49.386;8.370;2023-02-03T06:14:25;3.90;;;2.33;;
31990;SDS011;18508;49.386;8.370;2023-02-03T06:16:54;4.80;;;2.53;;
31990;SDS011;18508;49.386;8.370;2023-02-03T06:19:23;3.75;;;2.13;;
31990;SDS011;18508;49.386;8.370;2023-02-03T06:21:51;4.88;;;2.25;;
31990;SDS011;18508;49.386;8.370;2023-02-03T06:24:19;3.35;;;1.60;;
31990;SDS011;18508;49.386;8.370;2023-02-03T06:26:48;4.03;;;2.20;;
31990;SDS011;18508;49.386;8.370;2023-02-03T06:29:20;3.17;;;2.00;;
31990;SDS011;18508;49.386;8.370;2023-02-03T06:31:48;3.75;;;2.33;;
31990;SDS011;18508;49.386;8.370;2023-02-03T06:34:17;4.05;;;2.45;;
31990;SDS011;18508;49.386;8.370;2023-02-03T06:36:47;3.40;;;2.05;;
31990;SDS011;18508;49.386;8.370;2023-02-03T06:39:15;4.55;;;2.72;;
31990;SDS011;18508;49.386;8.370;2023-02-03T06:41:43;5.63;;;3.10;;
31990;SDS011;18508;49.386;8.370;2023-02-03T06:44:12;7.13;;;2.97;;
31990;SDS011;18508;49.386;8.370;2023-02-03T06:46:40;5.22;;;3.05;;
31990;SDS011;18508;49.386;8.370;2023-02-03T06:49:08;5.05;;;2.60;;
31990;SDS011;18508;49.386;8.370;2023-02-03T06:51:36;5.93;;;3.67;;
31990;SDS011;18508;49.386;8.370;2023-02-03T06:54:06;7.80;;;3.30;;
31990;SDS011;18508;49.386;8.370;2023-02-03T06:56:34;6.05;;;2.80;;
31990;SDS011;18508;49.386;8.370;2023-02-03T06:59:02;5.50;;;3.25;;
31990;SDS011;18508;49.386;8.370;2023-02-03T07:01:31;6.15;;;2.92;;
31990;SDS011;18508;49.386;8.370;2023-02-03T07:03:59;6.88;;;3.05;;
31990;SDS011;18508;49.386;8.370;2023-02-03T07:06:28;8.70;;;3.47;;
31990;SDS011;18508;49.386;8.370;2023-02-03T07:08:59;4.97;;;2.60;;
31990;SDS011;18508;49.386;8.370;2023-02-03T07:11:30;4.75;;;2.70;;
31990;SDS011;18508;49.386;8.370;2023-02-03T07:13:58;5.53;;;2.63;;
31990;SDS011;18508;49.386;8.370;2023-02-03T07:16:27;7.68;;;2.40;;
31990;SDS011;18508;49.386;8.370;2023-02-03T07:18:56;6.15;;;2.30;;
31990;SDS011;18508;49.386;8.370;2023-02-03T07:21:25;5.75;;;2.47;;
31990;SDS011;18508;49.386;8.370;2023-02-03T07:23:53;3.97;;;2.40;;
31990;SDS011;18508;49.386;8.370;2023-02-03T07:26:21;3.50;;;2.15;;
31990;SDS011;18508;49.386;8.370;2023-02-03T07:28:52;4.80;;;2.47;;
31990;SDS011;18508;49.386;8.370;2023-02-03T07:31:20;4.10;;;2.10;;
31990;SDS011;18508;49.386;8.370;2023-02-03T07:33:48;4.65;;;2.28;;
31990;SDS011;18508;49.386;8.370;2023-02-03T07:36:17;4.18;;;2.20;;
31990;SDS011;18508;49.386;8.370;2023-02-03T07:38:45;4.20;;;2.25;;
31990;SDS011;18508;49.386;8.370;2023-02-03T07:41:13;5.18;;;2.20;;
31990;SDS011;18508;49.386;8.370;2023-02-03T07:43:44;2.83;;;1.95;;
31990;SDS011;18508;49.386;8.370;2023-02-03T07:46:17;3.38;;;1.63;;
31990;SDS011;18508;49.386;8.370;2023-02-03T07:48:46;3.33;;;1.67;;
31990;SDS011;18508;49.386;8.370;2023-02-03T07:51:14;5.80;;;1.77;;
31990;SDS011;18508;49.386;8.370;2023-02-03T07:53:42;3.88;;;1.80;;
31990;SDS011;18508;49.386;8.370;2023-02-03T07:56:10;2.60;;;1.48;;
31990;SDS011;18508;49.386;8.370;2023-02-03T07:58:38;3.95;;;1.80;;
31990;SDS011;18508;49.386;8.370;2023-02-03T08:01:10;2.40;;;1.45;;
31990;SDS011;18508;49.386;8.370;2023-02-03T08:03:43;2.53;;;1.45;;
31990;SDS011;18508;49.386;8.370;2023-02-03T08:06:11;3.22;;;1.67;;
31990;SDS011;18508;49.386;8.370;2023-02-03T08:08:39;3.35;;;1.33;;
31990;SDS011;18508;49.386;8.370;2023-02-03T08:11:07;3.92;;;1.50;;
31990;SDS011;18508;49.386;8.370;2023-02-03T08:13:35;2.80;;;1.40;;
31990;SDS011;18508;49.386;8.370;2023-02-03T08:16:04;3.50;;;2.00;;
31990;SDS011;18508;49.386;8.370;2023-02-03T08:18:33;3.00;;;1.85;;
31990;SDS011;18508;49.386;8.370;2023-02-03T08:21:02;4.15;;;2.40;;
31990;SDS011;18508;49.386;8.370;2023-02-03T08:23:31;4.85;;;3.03;;
31990;SDS011;18508;49.386;8.370;2023-02-03T08:25:59;3.03;;;2.33;;
31990;SDS011;18508;49.386;8.370;2023-02-03T08:28:38;5.40;;;2.75;;
31990;SDS011;18508;49.386;8.370;2023-02-03T08:31:09;3.42;;;1.95;;
31990;SDS011;18508;49.386;8.370;2023-02-03T08:33:38;3.78;;;2.03;;
31990;SDS011;18508;49.386;8.370;2023-02-03T08:36:08;4.38;;;2.03;;
31990;SDS011;18508;49.386;8.370;2023-02-03T08:38:36;3.97;;;1.85;;
31990;SDS011;18508;49.386;8.370;2023-02-03T08:41:07;3.55;;;1.98;;
31990;SDS011;18508;49.386;8.370;2023-02-03T08:43:36;4.00;;;1.90;;
31990;SDS011;18508;49.386;8.370;2023-02-03T08:46:05;2.92;;;2.00;;
31990;SDS011;18508;49.386;8.370;2023-02-03T08:48:34;3.72;;;2.15;;
31990;SDS011;18508;49.386;8.370;2023-02-03T08:53:47;3.25;;;1.90;;
31990;SDS011;18508;49.386;8.370;2023-02-03T08:56:15;3.13;;;1.75;;
31990;SDS011;18508;49.386;8.370;2023-02-03T08:58:46;3.50;;;2.22;;
31990;SDS011;18508;49.386;8.370;2023-02-03T09:01:14;5.20;;;2.20;;
31990;SDS011;18508;49.386;8.370;2023-02-03T09:03:42;6.70;;;3.65;;
31990;SDS011;18508;49.386;8.370;2023-02-03T09:06:11;6.97;;;1.52;;
31990;SDS011;18508;49.386;8.370;2023-02-03T09:11:43;2.78;;;1.65;;
31990;SDS011;18508;49.386;8.370;2023-02-03T09:14:11;5.90;;;1.98;;
31990;SDS011;18508;49.386;8.370;2023-02-03T09:16:39;3.15;;;1.25;;
31990;SDS011;18508;49.386;8.370;2023-02-03T09:19:07;2.30;;;1.27;;
31990;SDS011;18508;49.386;8.370;2023-02-03T09:21:35;2.47;;;1.52;;
31990;SDS011;18508;49.386;8.370;2023-02-03T09:24:10;3.53;;;1.58;;
31990;SDS011;18508;49.386;8.370;2023-02-03T09:26:38;2.50;;;1.08;;
31990;SDS011;18508;49.386;8.370;2023-02-03T09:29:08;2.88;;;1.30;;
31990;SDS011;18508;49.386;8.370;2023-02-03T09:31:37;2.38;;;1.30;;
31990;SDS011;18508;49.386;8.370;2023-02-03T09:34:05;2.80;;;1.50;;
31990;SDS011;18508;49.386;8.370;2023-02-03T09:36:33;1.95;;;1.35;;
31990;SDS011;18508;49.386;8.370;2023-02-03T09:39:02;3.05;;;1.17;;
31990;SDS011;18508;49.386;8.370;2023-02-03T09:44:31;2.20;;;1.25;;
31990;SDS011;18508;49.386;8.370;2023-02-03T09:47:09;2.83;;;1.05;;
31990;SDS011;18508;49.386;8.370;2023-02-03T09:49:42;3.13;;;1.55;;
31990;SDS011;18508;49.386;8.370;2023-02-03T09:52:14;3.35;;;1.85;;
31990;SDS011;18508;49.386;8.370;2023-02-03T09:54:47;3.28;;;1.92;;
31990;SDS011;18508;49.386;8.370;2023-02-03T09:57:21;1.67;;;1.10;;
31990;SDS011;18508;49.386;8.370;2023-02-03T09:59:53;2.50;;;1.48;;
31990;SDS011;18508;49.386;8.370;2023-02-03T10:02:30;2.80;;;1.60;;
31990;SDS011;18508;49.386;8.370;2023-02-03T10:05:10;2.28;;;1.33;;
31990;SDS011;18508;49.386;8.370;2023-02-03T10:07:45;3.20;;;1.67;;
31990;SDS011;18508;49.386;8.370;2023-02-03T10:10:24;4.75;;;3.10;;
31990;SDS011;18508;49.386;8.370;2023-02-03T10:13:03;2.58;;;1.60;;
31990;SDS011;18508;49.386;8.370;2023-02-03T10:15:46;3.53;;;2.13;;
31990;SDS011;18508;49.386;8.370;2023-02-03T10:18:29;2.33;;;1.50;;
31990;SDS011;18508;49.386;8.370;2023-02-03T10:21:03;1.88;;;1.05;;
31990;SDS011;18508;49.386;8.370;2023-02-03T10:23:39;3.03;;;1.83;;
31990;SDS011;18508;49.386;8.370;2023-02-03T10:26:10;2.50;;;1.10;;
31990;SDS011;18508;49.386;8.370;2023-02-03T10:28:44;2.75;;;1.52;;
31990;SDS011;18508;49.386;8.370;2023-02-03T10:31:23;2.50;;;1.50;;
31990;SDS011;18508;49.386;8.370;2023-02-03T10:33:56;2.03;;;1.20;;
31990;SDS011;18508;49.386;8.370;2023-02-03T10:36:30;2.33;;;1.40;;
31990;SDS011;18508;49.386;8.370;2023-02-03T10:39:07;2.00;;;1.25;;
31990;SDS011;18508;49.386;8.370;2023-02-03T10:41:43;1.75;;;1.30;;
31990;SDS011;18508;49.386;8.370;2023-02-03T10:44:12;1.45;;;0.85;;
31990;SDS011;18508;49.386;8.370;2023-02-03T10:46:43;1.77;;;0.90;;
31990;SDS011;18508;49.386;8.370;2023-02-03T10:49:11;4.43;;;1.20;;
31990;SDS011;18508;49.386;8.370;2023-02-03T10:51:43;1.50;;;0.80;;
31990;SDS011;18508;49.386;8.370;2023-02-03T10:54:25;1.88;;;1.25;;
31990;SDS011;18508;49.386;8.370;2023-02-03T10:57:00;1.52;;;1.00;;
31990;SDS011;18508;49.386;8.370;2023-02-03T10:59:32;2.92;;;1.50;;
31990;SDS011;18508;49.386;8.370;2023-02-03T11:02:07;1.85;;;1.20;;
31990;SDS011;18508;49.386;8.370;2023-02-03T11:04:36;1.77;;;1.05;;
31990;SDS011;18508;49.386;8.370;2023-02-03T11:07:05;1.35;;;0.68;;
31990;SDS011;18508;49.386;8.370;2023-02-03T11:09:49;1.92;;;0.95;;
31990;SDS011;18508;49.386;8.370;2023-02-03T11:12:18;1.80;;;0.90;;
31990;SDS011;18508;49.386;8.370;2023-02-03T11:14:47;1.58;;;0.73;;
31990;SDS011;18508;49.386;8.370;2023-02-03T11:17:18;1.23;;;0.80;;
31990;SDS011;18508;49.386;8.370;2023-02-03T11:19:48;3.50;;;0.90;;
31990;SDS011;18508;49.386;8.370;2023-02-03T11:22:25;1.90;;;0.90;;
31990;SDS011;18508;49.386;8.370;2023-02-03T11:24:55;2.28;;;1.40;;
31990;SDS011;18508;49.386;8.370;2023-02-03T11:27:25;3.15;;;1.88;;
31990;SDS011;18508;49.386;8.370;2023-02-03T11:30:06;2.20;;;1.13;;
31990;SDS011;18508;49.386;8.370;2023-02-03T11:32:42;2.95;;;1.50;;
31990;SDS011;18508;49.386;8.370;2023-02-03T11:35:13;1.67;;;0.70;;
31990;SDS011;18508;49.386;8.370;2023-02-03T11:37:44;3.65;;;1.52;;
31990;SDS011;18508;49.386;8.370;2023-02-03T11:40:21;2.40;;;1.08;;
31990;SDS011;18508;49.386;8.370;2023-02-03T11:42:59;2.53;;;1.40;;
31990;SDS011;18508;49.386;8.370;2023-02-03T11:45:32;2.40;;;1.30;;
31990;SDS011;18508;49.386;8.370;2023-02-03T11:48:14;4.30;;;1.50;;
31990;SDS011;18508;49.386;8.370;2023-02-03T11:50:48;3.15;;;1.65;;
31990;SDS011;18508;49.386;8.370;2023-02-03T11:53:26;2.75;;;1.20;;
31990;SDS011;18508;49.386;8.370;2023-02-03T11:56:03;3.30;;;1.58;;
31990;SDS011;18508;49.386;8.370;2023-02-03T12:02:12;2.43;;;1.43;;
31990;SDS011;18508;49.386;8.370;2023-02-03T12:05:07;3.42;;;1.70;;
31990;SDS011;18508;49.386;8.370;2023-02-03T12:07:49;2.80;;;1.77;;
31990;SDS011;18508;49.386;8.370;2023-02-03T12:10:35;3.55;;;1.48;;
31990;SDS011;18508;49.386;8.370;2023-02-03T12:13:15;5.30;;;2.50;;
31990;SDS011;18508;49.386;8.370;2023-02-03T12:21:31;2.53;;;1.27;;
31990;SDS011;18508;49.386;8.370;2023-02-03T12:24:06;2.78;;;1.60;;
31990;SDS011;18508;49.386;8.370;2023-02-03T12:26:41;2.83;;;1.25;;
31990;SDS011;18508;49.386;8.370;2023-02-03T12:29:20;2.90;;;1.20;;
31990;SDS011;18508;49.386;8.370;2023-02-03T12:31:57;3.92;;;1.70;;
31990;SDS011;18508;49.386;8.370;2023-02-03T12:34:32;2.40;;;1.38;;
31990;SDS011;18508;49.386;8.370;2023-02-03T12:37:05;3.38;;;1.48;;
31990;SDS011;18508;49.386;8.370;2023-02-03T12:42:11;4.95;;;2.20;;
31990;SDS011;18508;49.386;8.370;2023-02-03T12:44:45;4.38;;;2.20;;
31990;SDS011;18508;49.386;8.370;2023-02-03T12:47:19;13.25;;;5.43;;
31990;SDS011;18508;49.386;8.370;2023-02-03T12:49:53;8.07;;;4.45;;
31990;SDS011;18508;49.386;8.370;2023-02-03T12:52:26;5.55;;;2.63;;
31990;SDS011;18508;49.386;8.370;2023-02-03T12:55:03;5.13;;;2.17;;
31990;SDS011;18508;49.386;8.370;2023-02-03T12:57:43;4.32;;;1.20;;
31990;SDS011;18508;49.386;8.370;2023-02-03T13:00:20;2.65;;;1.25;;
31990;SDS011;18508;49.386;8.370;2023-02-03T13:03:05;2.95;;;1.40;;
31990;SDS011;18508;49.386;8.370;2023-02-03T13:05:40;1.93;;;1.03;;
31990;SDS011;18508;49.386;8.370;2023-02-03T13:08:14;3.65;;;1.70;;
31990;SDS011;18508;49.386;8.370;2023-02-03T13:10:49;2.38;;;1.20;;
31990;SDS011;18508;49.386;8.370;2023-02-03T13:13:25;3.08;;;1.42;;
31990;SDS011;18508;49.386;8.370;2023-02-03T13:15:59;3.72;;;1.83;;
31990;SDS011;18508;49.386;8.370;2023-02-03T13:18:33;2.17;;;1.45;;
31990;SDS011;18508;49.386;8.370;2023-02-03T13:21:04;2.10;;;1.40;;
31990;SDS011;18508;49.386;8.370;2023-02-03T13:23:33;2.75;;;1.00;;
31990;SDS011;18508;49.386;8.370;2023-02-03T13:26:08;1.42;;;0.80;;
31990;SDS011;18508;49.386;8.370;2023-02-03T13:28:53;2.13;;;1.10;;
31990;SDS011;18508;49.386;8.370;2023-02-03T13:31:40;1.75;;;0.95;;
31990;SDS011;18508;49.386;8.370;2023-02-03T13:34:18;1.35;;;0.68;;
31990;SDS011;18508;49.386;8.370;2023-02-03T13:40:18;2.20;;;0.90;;
31990;SDS011;18508;49.386;8.370;2023-02-03T13:42:56;3.38;;;1.38;;
31990;SDS011;18508;49.386;8.370;2023-02-03T13:45:28;2.55;;;0.77;;
31990;SDS011;18508;49.386;8.370;2023-02-03T13:47:59;1.85;;;0.80;;
31990;SDS011;18508;49.386;8.370;2023-02-03T13:50:36;2.63;;;1.10;;
31990;SDS011;18508;49.386;8.370;2023-02-03T13:53:05;1.63;;;0.65;;
31990;SDS011;18508;49.386;8.370;2023-02-03T13:55:43;2.60;;;0.65;;
31990;SDS011;18508;49.386;8.370;2023-02-03T13:58:20;1.38;;;0.55;;
31990;SDS011;18508;49.386;8.370;2023-02-03T14:00:57;1.95;;;0.80;;
31990;SDS011;18508;49.386;8.370;2023-02-03T14:03:44;4.18;;;1.13;;
31990;SDS011;18508;49.386;8.370;2023-02-03T14:09:43;3.03;;;0.77;;
31990;SDS011;18508;49.386;8.370;2023-02-03T14:12:18;1.80;;;0.95;;
31990;SDS011;18508;49.386;8.370;2023-02-03T14:14:55;2.90;;;1.42;;
31990;SDS011;18508;49.386;8.370;2023-02-03T14:23:46;1.85;;;0.90;;
31990;SDS011;18508;49.386;8.370;2023-02-03T14:26:27;3.22;;;0.90;;
31990;SDS011;18508;49.386;8.370;2023-02-03T14:29:02;1.13;;;0.70;;
31990;SDS011;18508;49.386;8.370;2023-02-03T14:31:31;0.70;;;0.60;;
31990;SDS011;18508;49.386;8.370;2023-02-03T14:34:26;2.00;;;1.00;;
31990;SDS011;18508;49.386;8.370;2023-02-03T14:37:06;1.50;;;0.98;;
31990;SDS011;18508;49.386;8.370;2023-02-03T14:46:10;2.67;;;1.90;;
31990;SDS011;18508;49.386;8.370;2023-02-03T14:52:07;1.90;;;1.00;;
31990;SDS011;18508;49.386;8.370;2023-02-03T14:54:52;3.13;;;1.25;;
31990;SDS011;18508;49.386;8.370;2023-02-03T14:57:42;1.60;;;1.13;;
31990;SDS011;18508;49.386;8.370;2023-02-03T15:00:26;1.83;;;1.10;;
31990;SDS011;18508;49.386;8.370;2023-02-03T15:06:00;2.22;;;1.33;;
31990;SDS011;18508;49.386;8.370;2023-02-03T15:08:31;2.38;;;1.58;;
31990;SDS011;18508;49.386;8.370;2023-02-03T15:11:21;2.25;;;1.50;;
31990;SDS011;18508;49.386;8.370;2023-02-03T15:13:52;2.70;;;1.52;;
31990;SDS011;18508;49.386;8.370;2023-02-03T15:16:22;4.65;;;2.58;;
31990;SDS011;18508;49.386;8.370;2023-02-03T15:18:57;6.40;;;1.80;;
31990;SDS011;18508;49.386;8.370;2023-02-03T15:21:32;1.92;;;1.13;;
31990;SDS011;18508;49.386;8.370;2023-02-03T15:24:09;2.10;;;1.13;;
31990;SDS011;18508;49.386;8.370;2023-02-03T15:26:44;2.25;;;1.30;;
31990;SDS011;18508;49.386;8.370;2023-02-03T15:32:04;2.28;;;1.30;;
31990;SDS011;18508;49.386;8.370;2023-02-03T15:34:40;2.08;;;0.98;;
31990;SDS011;18508;49.386;8.370;2023-02-03T15:39:45;2.17;;;1.27;;
31990;SDS011;18508;49.386;8.370;2023-02-03T15:42:20;2.20;;;1.02;;
31990;SDS011;18508;49.386;8.370;2023-02-03T15:44:56;2.50;;;1.23;;
31990;SDS011;18508;49.386;8.370;2023-02-03T15:47:29;2.42;;;1.40;;
31990;SDS011;18508;49.386;8.370;2023-02-03T15:50:05;3.35;;;1.55;;
31990;SDS011;18508;49.386;8.370;2023-02-03T15:52:42;2.85;;;1.38;;
31990;SDS011;18508;49.386;8.370;2023-02-03T15:55:16;2.83;;;1.10;;
31990;SDS011;18508;49.386;8.370;2023-02-03T15:57:57;2.50;;;1.45;;
31990;SDS011;18508;49.386;8.370;2023-02-03T16:00:30;3.15;;;1.48;;
31990;SDS011;18508;49.386;8.370;2023-02-03T16:03:01;2.10;;;0.93;;
31990;SDS011;18508;49.386;8.370;2023-02-03T16:05:33;1.73;;;0.93;;
31990;SDS011;18508;49.386;8.370;2023-02-03T16:10:54;1.88;;;1.10;;
31990;SDS011;18508;49.386;8.370;2023-02-03T16:13:23;2.20;;;1.23;;
31990;SDS011;18508;49.386;8.370;2023-02-03T16:15:59;2.63;;;1.67;;